sensor_id;sensor_type;location;lat;lon;timestamp;pressure;altitude;pressure_sealevel;temperature;humidity
34696;BME280;20918;51.138;17.370;2023-03-04T00:01:13;100356.50;;;-0.98;90.23
34696;BME280;20918;51.138;17.370;2023-03-04T00:04:13;100359.07;;;-0.97;90.17
34696;BME280;20918;51.138;17.370;2023-03-04T00:07:14;100348.09;;;-0.97;90.29
34696;BME280;20918;51.138;17.370;2023-03-04T00:10:16;100343.73;;;-0.96;90.41
34696;BME280;20918;51.138;17.370;2023-03-04T00:13:16;100346.48;;;-0.95;90.25
34696;BME280;20918;51.138;17.370;2023-03-04T00:16:17;100348.02;;;-0.95;90.35
34696;BME280;20918;51.138;17.370;2023-03-04T00:19:18;100345.70;;;-0.94;90.30
34696;BME280;20918;51.138;17.370;2023-03-04T00:22:18;100336.24;;;-0.93;90.42
34696;BME280;20918;51.138;17.370;2023-03-04T00:25:18;100334.73;;;-0.91;90.43
34696;BME280;20918;51.138;17.370;2023-03-04T00:28:19;100325.96;;;-0.89;90.45
34696;BME280;20918;51.138;17.370;2023-03-04T00:31:19;100322.39;;;-0.87;90.38
34696;BME280;20918;51.138;17.370;2023-03-04T00:34:20;100315.94;;;-0.87;90.42
34696;BME280;20918;51.138;17.370;2023-03-04T00:37:20;100306.34;;;-0.86;90.42
34696;BME280;20918;51.138;17.370;2023-03-04T00:40:21;100296.06;;;-0.85;90.26
34696;BME280;20918;51.138;17.370;2023-03-04T00:43:21;100299.27;;;-0.84;90.34
34696;BME280;20918;51.138;17.370;2023-03-04T00:46:22;100297.88;;;-0.84;90.32
34696;BME280;20918;51.138;17.370;2023-03-04T00:49:22;100297.42;;;-0.85;90.36
34696;BME280;20918;51.138;17.370;2023-03-04T00:52:22;100294.65;;;-0.85;90.51
34696;BME280;20918;51.138;17.370;2023-03-04T00:55:23;100286.60;;;-0.84;90.57
34696;BME280;20918;51.138;17.370;2023-03-04T00:58:23;100281.48;;;-0.83;90.62
34696;BME280;20918;51.138;17.370;2023-03-04T01:01:24;100277.41;;;-0.81;90.56
34696;BME280;20918;51.138;17.370;2023-03-04T01:04:27;100268.13;;;-0.80;90.48
34696;BME280;20918;51.138;17.370;2023-03-04T01:07:28;100264.73;;;-0.78;90.51
34696;BME280;20918;51.138;17.370;2023-03-04T01:10:28;100266.19;;;-0.77;90.66
34696;BME280;20918;51.138;17.370;2023-03-04T01:13:28;100263.33;;;-0.75;90.35
34696;BME280;20918;51.138;17.370;2023-03-04T01:16:29;100262.84;;;-0.73;90.25
34696;BME280;20918;51.138;17.370;2023-03-04T01:19:29;100258.73;;;-0.71;90.34
34696;BME280;20918;51.138;17.370;2023-03-04T01:22:30;100261.42;;;-0.70;90.24
34696;BME280;20918;51.138;17.370;2023-03-04T01:25:31;100258.88;;;-0.68;90.50
34696;BME280;20918;51.138;17.370;2023-03-04T01:28:32;100252.54;;;-0.66;90.44
34696;BME280;20918;51.138;17.370;2023-03-04T01:31:34;100240.07;;;-0.64;90.19
34696;BME280;20918;51.138;17.370;2023-03-04T01:34:37;100222.38;;;-0.62;90.04
34696;BME280;20918;51.138;17.370;2023-03-04T01:37:38;100217.10;;;-0.61;90.17
34696;BME280;20918;51.138;17.370;2023-03-04T01:40:38;100211.96;;;-0.59;90.00
34696;BME280;20918;51.138;17.370;2023-03-04T01:43:39;100206.02;;;-0.58;89.86
34696;BME280;20918;51.138;17.370;2023-03-04T01:46:40;100200.17;;;-0.57;90.00
34696;BME280;20918;51.138;17.370;2023-03-04T01:49:41;100191.60;;;-0.56;89.80
34696;BME280;20918;51.138;17.370;2023-03-04T01:52:42;100189.73;;;-0.54;89.86
34696;BME280;20918;51.138;17.370;2023-03-04T01:55:42;100187.50;;;-0.51;89.99
34696;BME280;20918;51.138;17.370;2023-03-04T01:58:42;100184.06;;;-0.49;89.98
34696;BME280;20918;51.138;17.370;2023-03-04T02:01:44;100175.64;;;-0.48;89.48
34696;BME280;20918;51.138;17.370;2023-03-04T02:04:47;100177.77;;;-0.46;89.44
34696;BME280;20918;51.138;17.370;2023-03-04T02:07:48;100177.54;;;-0.44;89.23
34696;BME280;20918;51.138;17.370;2023-03-04T02:10:48;100179.90;;;-0.43;89.34
34696;BME280;20918;51.138;17.370;2023-03-04T02:13:50;100183.77;;;-0.41;89.32
34696;BME280;20918;51.138;17.370;2023-03-04T02:16:53;100178.75;;;-0.39;89.13
34696;BME280;20918;51.138;17.370;2023-03-04T02:26:11;100184.16;;;-0.34;88.56
34696;BME280;20918;51.138;17.370;2023-03-04T02:29:13;100176.70;;;-0.31;88.12
34696;BME280;20918;51.138;17.370;2023-03-04T02:32:14;100186.08;;;-0.28;88.21
34696;BME280;20918;51.138;17.370;2023-03-04T02:35:15;100176.39;;;-0.26;88.26
34696;BME280;20918;51.138;17.370;2023-03-04T02:38:17;100164.36;;;-0.26;87.81
34696;BME280;20918;51.138;17.370;2023-03-04T02:41:18;100156.32;;;-0.25;87.53
34696;BME280;20918;51.138;17.370;2023-03-04T02:44:21;100155.16;;;-0.23;87.60
34696;BME280;20918;51.138;17.370;2023-03-04T02:47:22;100151.67;;;-0.23;87.51
34696;BME280;20918;51.138;17.370;2023-03-04T02:50:25;100146.80;;;-0.22;87.48
34696;BME280;20918;51.138;17.370;2023-03-04T02:53:29;100139.30;;;-0.22;87.25
34696;BME280;20918;51.138;17.370;2023-03-04T02:56:29;100137.17;;;-0.21;87.11
34696;BME280;20918;51.138;17.370;2023-03-04T02:59:30;100131.55;;;-0.21;87.02
34696;BME280;20918;51.138;17.370;2023-03-04T03:02:30;100134.06;;;-0.19;87.18
34696;BME280;20918;51.138;17.370;2023-03-04T03:05:32;100136.90;;;-0.17;86.98
34696;BME280;20918;51.138;17.370;2023-03-04T03:08:33;100131.48;;;-0.17;86.88
34696;BME280;20918;51.138;17.370;2023-03-04T03:11:34;100129.86;;;-0.16;86.68
34696;BME280;20918;51.138;17.370;2023-03-04T03:14:34;100132.64;;;-0.16;86.67
34696;BME280;20918;51.138;17.370;2023-03-04T03:17:36;100128.68;;;-0.16;86.75
34696;BME280;20918;51.138;17.370;2023-03-04T03:20:36;100128.86;;;-0.17;86.57
34696;BME280;20918;51.138;17.370;2023-03-04T03:23:37;100124.81;;;-0.16;86.55
34696;BME280;20918;51.138;17.370;2023-03-04T03:26:40;100121.38;;;-0.16;86.39
34696;BME280;20918;51.138;17.370;2023-03-04T03:29:41;100125.91;;;-0.17;86.39
34696;BME280;20918;51.138;17.370;2023-03-04T03:32:41;100121.80;;;-0.18;85.87
34696;BME280;20918;51.138;17.370;2023-03-04T03:35:42;100121.58;;;-0.17;86.01
34696;BME280;20918;51.138;17.370;2023-03-04T03:38:43;100119.30;;;-0.17;86.01
34696;BME280;20918;51.138;17.370;2023-03-04T03:41:43;100118.46;;;-0.17;85.94
34696;BME280;20918;51.138;17.370;2023-03-04T03:44:43;100116.65;;;-0.16;85.88
34696;BME280;20918;51.138;17.370;2023-03-04T03:47:44;100121.16;;;-0.16;85.73
34696;BME280;20918;51.138;17.370;2023-03-04T03:50:44;100115.11;;;-0.17;85.65
34696;BME280;20918;51.138;17.370;2023-03-04T03:53:44;100114.11;;;-0.17;85.63
34696;BME280;20918;51.138;17.370;2023-03-04T03:56:45;100112.30;;;-0.16;85.57
34696;BME280;20918;51.138;17.370;2023-03-04T03:59:45;100111.90;;;-0.15;85.32
34696;BME280;20918;51.138;17.370;2023-03-04T04:02:45;100104.90;;;-0.15;85.55
34696;BME280;20918;51.138;17.370;2023-03-04T04:05:46;100101.46;;;-0.15;85.34
34696;BME280;20918;51.138;17.370;2023-03-04T04:08:46;100104.01;;;-0.14;85.27
34696;BME280;20918;51.138;17.370;2023-03-04T04:11:47;100103.31;;;-0.14;85.36
34696;BME280;20918;51.138;17.370;2023-03-04T04:14:47;100100.01;;;-0.14;85.44
34696;BME280;20918;51.138;17.370;2023-03-04T04:17:47;100100.14;;;-0.14;84.97
34696;BME280;20918;51.138;17.370;2023-03-04T04:20:48;100101.16;;;-0.13;85.13
34696;BME280;20918;51.138;17.370;2023-03-04T04:23:48;100095.02;;;-0.13;85.06
34696;BME280;20918;51.138;17.370;2023-03-04T04:26:48;100093.09;;;-0.12;85.02
34696;BME280;20918;51.138;17.370;2023-03-04T04:29:49;100092.14;;;-0.11;84.84
34696;BME280;20918;51.138;17.370;2023-03-04T04:32:49;100080.32;;;-0.11;84.68
34696;BME280;20918;51.138;17.370;2023-03-04T04:35:49;100078.39;;;-0.11;84.70
34696;BME280;20918;51.138;17.370;2023-03-04T04:38:50;100076.80;;;-0.10;84.71
34696;BME280;20918;51.138;17.370;2023-03-04T04:41:50;100078.02;;;-0.10;84.69
34696;BME280;20918;51.138;17.370;2023-03-04T04:44:50;100074.07;;;-0.09;84.49
34696;BME280;20918;51.138;17.370;2023-03-04T04:47:52;100070.84;;;-0.07;84.41
34696;BME280;20918;51.138;17.370;2023-03-04T04:50:53;100065.74;;;-0.06;84.28
34696;BME280;20918;51.138;17.370;2023-03-04T04:53:54;100061.71;;;-0.06;84.07
34696;BME280;20918;51.138;17.370;2023-03-04T04:56:54;100060.23;;;-0.05;84.07
34696;BME280;20918;51.138;17.370;2023-03-04T04:59:55;100050.95;;;-0.04;84.06
34696;BME280;20918;51.138;17.370;2023-03-04T05:02:55;100051.80;;;-0.03;84.01
34696;BME280;20918;51.138;17.370;2023-03-04T05:05:56;100055.71;;;-0.02;83.90
34696;BME280;20918;51.138;17.370;2023-03-04T05:08:57;100049.69;;;-0.00;83.94
34696;BME280;20918;51.138;17.370;2023-03-04T05:11:57;100057.09;;;0.02;83.95
34696;BME280;20918;51.138;17.370;2023-03-04T05:14:58;100055.11;;;0.02;83.81
34696;BME280;20918;51.138;17.370;2023-03-04T05:17:58;100057.73;;;0.05;83.82
34696;BME280;20918;51.138;17.370;2023-03-04T05:21:00;100057.97;;;0.06;83.76
34696;BME280;20918;51.138;17.370;2023-03-04T05:24:00;100061.06;;;0.07;83.79
34696;BME280;20918;51.138;17.370;2023-03-04T05:27:01;100060.48;;;0.08;83.93
34696;BME280;20918;51.138;17.370;2023-03-04T05:30:01;100057.81;;;0.09;83.74
34696;BME280;20918;51.138;17.370;2023-03-04T05:33:01;100059.12;;;0.10;83.74
34696;BME280;20918;51.138;17.370;2023-03-04T05:36:02;100051.63;;;0.10;83.63
34696;BME280;20918;51.138;17.370;2023-03-04T05:39:03;100048.23;;;0.11;83.63
34696;BME280;20918;51.138;17.370;2023-03-04T05:42:03;100045.88;;;0.13;83.56
34696;BME280;20918;51.138;17.370;2023-03-04T05:45:04;100048.89;;;0.15;83.62
34696;BME280;20918;51.138;17.370;2023-03-04T05:48:04;100043.35;;;0.17;83.47
34696;BME280;20918;51.138;17.370;2023-03-04T05:51:05;100050.18;;;0.19;83.25
34696;BME280;20918;51.138;17.370;2023-03-04T05:54:05;100051.29;;;0.20;83.21
34696;BME280;20918;51.138;17.370;2023-03-04T05:57:05;100045.99;;;0.21;83.25
34696;BME280;20918;51.138;17.370;2023-03-04T06:00:06;100047.54;;;0.24;83.04
34696;BME280;20918;51.138;17.370;2023-03-04T06:03:13;100045.72;;;0.26;82.91
34696;BME280;20918;51.138;17.370;2023-03-04T06:06:14;100044.21;;;0.28;83.08
34696;BME280;20918;51.138;17.370;2023-03-04T06:09:14;100044.45;;;0.29;83.06
34696;BME280;20918;51.138;17.370;2023-03-04T06:12:15;100037.73;;;0.31;82.83
34696;BME280;20918;51.138;17.370;2023-03-04T06:15:15;100037.29;;;0.32;82.75
34696;BME280;20918;51.138;17.370;2023-03-04T06:18:15;100034.98;;;0.35;82.68
34696;BME280;20918;51.138;17.370;2023-03-04T06:21:16;100040.57;;;0.37;82.75
34696;BME280;20918;51.138;17.370;2023-03-04T06:24:16;100044.83;;;0.39;82.70
34696;BME280;20918;51.138;17.370;2023-03-04T06:27:19;100044.52;;;0.41;82.63
34696;BME280;20918;51.138;17.370;2023-03-04T06:30:19;100043.50;;;0.43;82.56
34696;BME280;20918;51.138;17.370;2023-03-04T06:33:20;100046.69;;;0.45;82.39
34696;BME280;20918;51.138;17.370;2023-03-04T06:36:23;100050.73;;;0.47;82.21
34696;BME280;20918;51.138;17.370;2023-03-04T06:39:23;100053.79;;;0.48;82.33
34696;BME280;20918;51.138;17.370;2023-03-04T06:42:24;100048.60;;;0.50;82.32
34696;BME280;20918;51.138;17.370;2023-03-04T06:45:24;100053.06;;;0.51;82.19
34696;BME280;20918;51.138;17.370;2023-03-04T06:48:24;100054.98;;;0.54;82.17
34696;BME280;20918;51.138;17.370;2023-03-04T06:51:28;100066.28;;;0.56;81.99
34696;BME280;20918;51.138;17.370;2023-03-04T06:54:30;100067.53;;;0.59;82.12
34696;BME280;20918;51.138;17.370;2023-03-04T06:57:31;100068.15;;;0.60;81.74
34696;BME280;20918;51.138;17.370;2023-03-04T07:00:31;100070.19;;;0.60;81.85
34696;BME280;20918;51.138;17.370;2023-03-04T07:03:31;100068.31;;;0.62;81.46
34696;BME280;20918;51.138;17.370;2023-03-04T07:06:32;100072.39;;;0.64;81.74
34696;BME280;20918;51.138;17.370;2023-03-04T07:09:32;100073.66;;;0.66;81.51
34696;BME280;20918;51.138;17.370;2023-03-04T07:12:33;100078.77;;;0.67;81.70
34696;BME280;20918;51.138;17.370;2023-03-04T07:15:36;100075.54;;;0.69;81.64
34696;BME280;20918;51.138;17.370;2023-03-04T07:18:37;100071.95;;;0.70;81.40
34696;BME280;20918;51.138;17.370;2023-03-04T07:21:37;100074.06;;;0.72;81.56
34696;BME280;20918;51.138;17.370;2023-03-04T07:24:38;100074.95;;;0.75;81.75
34696;BME280;20918;51.138;17.370;2023-03-04T07:27:38;100073.05;;;0.77;81.76
34696;BME280;20918;51.138;17.370;2023-03-04T07:30:40;100075.33;;;0.79;81.67
34696;BME280;20918;51.138;17.370;2023-03-04T07:33:40;100070.69;;;0.81;81.65
34696;BME280;20918;51.138;17.370;2023-03-04T07:36:41;100071.20;;;0.84;81.81
34696;BME280;20918;51.138;17.370;2023-03-04T07:39:41;100071.17;;;0.84;81.82
34696;BME280;20918;51.138;17.370;2023-03-04T07:42:41;100069.75;;;0.84;82.07
34696;BME280;20918;51.138;17.370;2023-03-04T07:45:44;100068.48;;;0.85;82.04
34696;BME280;20918;51.138;17.370;2023-03-04T07:48:44;100062.52;;;0.86;82.27
34696;BME280;20918;51.138;17.370;2023-03-04T07:51:45;100058.20;;;0.88;82.40
34696;BME280;20918;51.138;17.370;2023-03-04T07:54:46;100057.59;;;0.89;82.61
34696;BME280;20918;51.138;17.370;2023-03-04T07:57:46;100053.54;;;0.90;82.89
34696;BME280;20918;51.138;17.370;2023-03-04T08:00:47;100048.38;;;0.92;82.89
34696;BME280;20918;51.138;17.370;2023-03-04T08:03:47;100054.25;;;0.92;83.05
34696;BME280;20918;51.138;17.370;2023-03-04T08:06:48;100050.09;;;0.95;83.06
34696;BME280;20918;51.138;17.370;2023-03-04T08:09:49;100048.73;;;0.97;83.13
34696;BME280;20918;51.138;17.370;2023-03-04T08:12:49;100047.41;;;0.98;83.23
34696;BME280;20918;51.138;17.370;2023-03-04T08:15:50;100048.20;;;0.99;83.41
34696;BME280;20918;51.138;17.370;2023-03-04T08:18:51;100042.67;;;1.01;83.49
34696;BME280;20918;51.138;17.370;2023-03-04T08:21:52;100038.88;;;1.05;83.69
34696;BME280;20918;51.138;17.370;2023-03-04T08:24:53;100039.22;;;1.08;83.83
34696;BME280;20918;51.138;17.370;2023-03-04T08:27:53;100036.83;;;1.10;83.80
34696;BME280;20918;51.138;17.370;2023-03-04T08:30:54;100039.94;;;1.12;83.93
34696;BME280;20918;51.138;17.370;2023-03-04T08:33:55;100033.98;;;1.15;83.95
34696;BME280;20918;51.138;17.370;2023-03-04T08:36:56;100030.73;;;1.19;84.00
34696;BME280;20918;51.138;17.370;2023-03-04T08:39:56;100029.43;;;1.23;84.02
34696;BME280;20918;51.138;17.370;2023-03-04T08:42:56;100027.98;;;1.26;84.10
34696;BME280;20918;51.138;17.370;2023-03-04T08:45:57;100029.13;;;1.27;83.99
34696;BME280;20918;51.138;17.370;2023-03-04T08:48:57;100027.09;;;1.27;84.04
34696;BME280;20918;51.138;17.370;2023-03-04T08:51:58;100026.96;;;1.28;84.16
34696;BME280;20918;51.138;17.370;2023-03-04T08:55:01;100029.16;;;1.32;84.31
34696;BME280;20918;51.138;17.370;2023-03-04T08:58:02;100032.34;;;1.36;84.42
34696;BME280;20918;51.138;17.370;2023-03-04T09:01:07;100025.67;;;1.39;84.37
34696;BME280;20918;51.138;17.370;2023-03-04T09:04:08;100028.41;;;1.42;84.52
34696;BME280;20918;51.138;17.370;2023-03-04T09:07:08;100023.09;;;1.46;84.59
34696;BME280;20918;51.138;17.370;2023-03-04T09:10:12;100021.42;;;1.47;84.65
34696;BME280;20918;51.138;17.370;2023-03-04T09:13:15;100024.09;;;1.49;84.61
34696;BME280;20918;51.138;17.370;2023-03-04T09:16:15;100031.41;;;1.49;84.47
34696;BME280;20918;51.138;17.370;2023-03-04T09:19:16;100028.13;;;1.51;84.71
34696;BME280;20918;51.138;17.370;2023-03-04T09:22:19;100027.17;;;1.52;84.69
34696;BME280;20918;51.138;17.370;2023-03-04T09:25:20;100028.56;;;1.52;84.81
34696;BME280;20918;51.138;17.370;2023-03-04T09:28:20;100032.38;;;1.52;84.79
34696;BME280;20918;51.138;17.370;2023-03-04T09:31:23;100033.09;;;1.55;84.83
34696;BME280;20918;51.138;17.370;2023-03-04T09:34:24;100034.95;;;1.55;84.88
34696;BME280;20918;51.138;17.370;2023-03-04T09:37:24;100031.09;;;1.58;84.98
34696;BME280;20918;51.138;17.370;2023-03-04T09:40:26;100028.86;;;1.60;85.11
34696;BME280;20918;51.138;17.370;2023-03-04T09:43:28;100022.48;;;1.64;85.18
34696;BME280;20918;51.138;17.370;2023-03-04T09:46:35;100024.39;;;1.66;85.06
34696;BME280;20918;51.138;17.370;2023-03-04T09:49:37;100017.80;;;1.73;85.18
34696;BME280;20918;51.138;17.370;2023-03-04T09:55:41;100008.69;;;1.90;85.12
34696;BME280;20918;51.138;17.370;2023-03-04T10:02:06;100004.98;;;2.00;85.12
34696;BME280;20918;51.138;17.370;2023-03-04T10:05:19;99996.34;;;2.06;85.21
34696;BME280;20918;51.138;17.370;2023-03-04T10:11:26;99994.09;;;2.19;85.72
34696;BME280;20918;51.138;17.370;2023-03-04T10:14:47;99992.56;;;2.21;85.54
34696;BME280;20918;51.138;17.370;2023-03-04T10:17:51;99985.41;;;2.24;86.04
34696;BME280;20918;51.138;17.370;2023-03-04T10:24:13;99976.80;;;2.32;86.35
34696;BME280;20918;51.138;17.370;2023-03-04T10:27:17;99974.27;;;2.42;86.60
34696;BME280;20918;51.138;17.370;2023-03-04T10:30:43;99966.47;;;2.57;86.93
34696;BME280;20918;51.138;17.370;2023-03-04T10:33:40;99969.79;;;2.75;86.87
34696;BME280;20918;51.138;17.370;2023-03-04T10:36:58;99969.44;;;2.90;86.87
34696;BME280;20918;51.138;17.370;2023-03-04T10:39:59;99960.20;;;2.96;86.11
34696;BME280;20918;51.138;17.370;2023-03-04T10:43:00;99960.17;;;3.05;86.52
34696;BME280;20918;51.138;17.370;2023-03-04T10:46:00;99959.71;;;3.16;86.31
34696;BME280;20918;51.138;17.370;2023-03-04T10:49:01;99957.38;;;3.23;86.06
34696;BME280;20918;51.138;17.370;2023-03-04T10:52:11;99947.73;;;3.30;85.72
34696;BME280;20918;51.138;17.370;2023-03-04T10:55:15;99947.54;;;3.30;85.10
34696;BME280;20918;51.138;17.370;2023-03-04T10:58:16;99947.98;;;3.29;85.16
34696;BME280;20918;51.138;17.370;2023-03-04T11:01:18;99944.04;;;3.30;84.91
34696;BME280;20918;51.138;17.370;2023-03-04T11:04:25;99943.70;;;3.24;84.49
34696;BME280;20918;51.138;17.370;2023-03-04T11:07:25;99946.52;;;3.14;84.18
34696;BME280;20918;51.138;17.370;2023-03-04T11:13:35;99937.67;;;3.07;84.46
34696;BME280;20918;51.138;17.370;2023-03-04T11:16:36;99944.27;;;3.03;84.36
34696;BME280;20918;51.138;17.370;2023-03-04T11:19:37;99950.24;;;2.99;84.34
34696;BME280;20918;51.138;17.370;2023-03-04T11:22:38;99949.35;;;2.97;84.60
34696;BME280;20918;51.138;17.370;2023-03-04T11:25:46;99946.22;;;2.96;84.84
34696;BME280;20918;51.138;17.370;2023-03-04T11:35:13;99941.88;;;3.05;84.92
34696;BME280;20918;51.138;17.370;2023-03-04T11:38:23;99938.00;;;3.07;84.84
34696;BME280;20918;51.138;17.370;2023-03-04T11:41:31;99935.09;;;3.17;84.88
34696;BME280;20918;51.138;17.370;2023-03-04T11:44:32;99929.30;;;3.33;84.85
34696;BME280;20918;51.138;17.370;2023-03-04T11:50:47;99915.55;;;3.69;84.40
34696;BME280;20918;51.138;17.370;2023-03-04T11:57:01;99917.18;;;3.82;83.90
34696;BME280;20918;51.138;17.370;2023-03-04T12:03:26;99911.48;;;3.90;83.86
34696;BME280;20918;51.138;17.370;2023-03-04T14:26:32;99852.33;;;3.69;85.27
34696;BME280;20918;51.138;17.370;2023-03-04T14:38:46;99842.73;;;3.63;85.16
34696;BME280;20918;51.138;17.370;2023-03-04T14:42:20;99838.49;;;3.57;85.51
34696;BME280;20918;51.138;17.370;2023-03-04T14:49:37;99833.95;;;3.50;85.47
34696;BME280;20918;51.138;17.370;2023-03-04T14:53:18;99838.55;;;3.48;85.52
34696;BME280;20918;51.138;17.370;2023-03-04T14:56:49;99843.86;;;3.45;85.85
34696;BME280;20918;51.138;17.370;2023-03-04T14:59:54;99849.42;;;3.39;86.34
34696;BME280;20918;51.138;17.370;2023-03-04T15:06:35;99840.25;;;3.25;86.43
34696;BME280;20918;51.138;17.370;2023-03-04T15:09:40;99837.75;;;3.26;86.61
34696;BME280;20918;51.138;17.370;2023-03-04T15:16:52;99827.73;;;3.33;86.91
34696;BME280;20918;51.138;17.370;2023-03-04T15:20:32;99828.01;;;3.36;86.65
34696;BME280;20918;51.138;17.370;2023-03-04T15:23:37;99824.95;;;3.37;86.55
34696;BME280;20918;51.138;17.370;2023-03-04T15:27:02;99824.47;;;3.36;86.10
34696;BME280;20918;51.138;17.370;2023-03-04T15:30:35;99823.77;;;3.34;85.98
34696;BME280;20918;51.138;17.370;2023-03-04T15:41:04;99828.50;;;3.28;85.57
34696;BME280;20918;51.138;17.370;2023-03-04T15:44:43;99827.41;;;3.26;85.70
34696;BME280;20918;51.138;17.370;2023-03-04T15:51:21;99828.73;;;3.25;85.65
34696;BME280;20918;51.138;17.370;2023-03-04T15:54:57;99832.64;;;3.24;85.71
34696;BME280;20918;51.138;17.370;2023-03-04T15:58:14;99827.24;;;3.24;85.55
34696;BME280;20918;51.138;17.370;2023-03-04T16:01:58;99826.63;;;3.23;85.46
34696;BME280;20918;51.138;17.370;2023-03-04T16:09:09;99820.77;;;3.22;85.46
34696;BME280;20918;51.138;17.370;2023-03-04T16:12:20;99819.95;;;3.21;85.52
34696;BME280;20918;51.138;17.370;2023-03-04T16:23:41;99815.45;;;3.19;85.23
34696;BME280;20918;51.138;17.370;2023-03-04T16:27:16;99822.84;;;3.18;85.13
34696;BME280;20918;51.138;17.370;2023-03-04T16:30:24;99821.65;;;3.18;85.36
34696;BME280;20918;51.138;17.370;2023-03-04T16:41:43;99844.02;;;3.18;84.87
34696;BME280;20918;51.138;17.370;2023-03-04T16:48:29;99860.60;;;3.20;84.66
34696;BME280;20918;51.138;17.370;2023-03-04T16:51:36;99862.88;;;3.22;84.59
34696;BME280;20918;51.138;17.370;2023-03-04T16:54:45;99871.98;;;3.24;84.75
34696;BME280;20918;51.138;17.370;2023-03-04T17:02:15;99881.50;;;3.06;84.06
34696;BME280;20918;51.138;17.370;2023-03-04T17:05:32;99887.36;;;2.98;84.63
34696;BME280;20918;51.138;17.370;2023-03-04T17:12:41;99882.15;;;2.87;84.13
34696;BME280;20918;51.138;17.370;2023-03-04T17:27:53;99895.50;;;2.62;84.11
34696;BME280;20918;51.138;17.370;2023-03-04T17:31:09;99893.29;;;2.59;84.13
34696;BME280;20918;51.138;17.370;2023-03-04T17:34:43;99892.81;;;2.54;84.09
34696;BME280;20918;51.138;17.370;2023-03-04T17:38:06;99893.62;;;2.50;84.23
34696;BME280;20918;51.138;17.370;2023-03-04T17:41:37;99892.73;;;2.48;84.38
34696;BME280;20918;51.138;17.370;2023-03-04T17:45:08;99890.75;;;2.47;84.40
34696;BME280;20918;51.138;17.370;2023-03-04T17:52:17;99898.61;;;2.42;84.56
34696;BME280;20918;51.138;17.370;2023-03-04T17:56:15;99902.80;;;2.42;84.56
34696;BME280;20918;51.138;17.370;2023-03-04T18:00:00;99906.50;;;2.42;84.71
34696;BME280;20918;51.138;17.370;2023-03-04T18:03:29;99905.31;;;2.41;84.94
34696;BME280;20918;51.138;17.370;2023-03-04T18:06:33;99901.41;;;2.42;84.85
34696;BME280;20918;51.138;17.370;2023-03-04T18:09:38;99901.29;;;2.41;84.81
34696;BME280;20918;51.138;17.370;2023-03-04T18:12:58;99902.75;;;2.41;84.92
34696;BME280;20918;51.138;17.370;2023-03-04T18:17:00;99904.89;;;2.42;85.10
34696;BME280;20918;51.138;17.370;2023-03-04T18:20:41;99911.21;;;2.44;85.04
34696;BME280;20918;51.138;17.370;2023-03-04T18:24:09;99910.46;;;2.47;85.05
34696;BME280;20918;51.138;17.370;2023-03-04T18:27:15;99907.73;;;2.49;84.97
34696;BME280;20918;51.138;17.370;2023-03-04T18:30:51;99908.95;;;2.51;85.10
34696;BME280;20918;51.138;17.370;2023-03-04T18:34:29;99910.21;;;2.52;85.19
34696;BME280;20918;51.138;17.370;2023-03-04T18:37:57;99914.66;;;2.54;85.05
34696;BME280;20918;51.138;17.370;2023-03-04T18:41:07;99916.31;;;2.55;85.30
34696;BME280;20918;51.138;17.370;2023-03-04T18:44:28;99919.58;;;2.56;85.21
34696;BME280;20918;51.138;17.370;2023-03-04T18:47:56;99921.73;;;2.55;85.33
34696;BME280;20918;51.138;17.370;2023-03-04T18:51:04;99929.18;;;2.56;85.36
34696;BME280;20918;51.138;17.370;2023-03-04T18:54:26;99931.79;;;2.56;85.09
34696;BME280;20918;51.138;17.370;2023-03-04T18:57:55;99935.31;;;2.55;85.43
34696;BME280;20918;51.138;17.370;2023-03-04T19:05:06;99946.50;;;2.53;84.80
34696;BME280;20918;51.138;17.370;2023-03-04T19:08:47;99942.73;;;2.41;84.57
34696;BME280;20918;51.138;17.370;2023-03-04T19:15:39;99951.00;;;2.12;84.63
34696;BME280;20918;51.138;17.370;2023-03-04T19:19:11;99949.64;;;2.05;84.86
34696;BME280;20918;51.138;17.370;2023-03-04T19:22:12;99953.17;;;2.00;84.92
34696;BME280;20918;51.138;17.370;2023-03-04T19:25:13;99957.42;;;1.97;85.07
34696;BME280;20918;51.138;17.370;2023-03-04T19:31:37;99959.45;;;1.93;85.30
34696;BME280;20918;51.138;17.370;2023-03-04T19:38:34;99963.65;;;1.93;85.31
34696;BME280;20918;51.138;17.370;2023-03-04T19:41:37;99966.56;;;1.93;85.34
34696;BME280;20918;51.138;17.370;2023-03-04T19:45:21;99970.05;;;1.94;85.20
34696;BME280;20918;51.138;17.370;2023-03-04T19:48:52;99969.54;;;1.91;84.81
34696;BME280;20918;51.138;17.370;2023-03-04T19:52:10;99969.50;;;1.90;84.40
34696;BME280;20918;51.138;17.370;2023-03-04T19:55:13;99972.17;;;1.86;83.74
34696;BME280;20918;51.138;17.370;2023-03-04T19:58:37;99971.16;;;1.84;83.09
34696;BME280;20918;51.138;17.370;2023-03-04T20:06:25;99974.39;;;1.77;81.78
34696;BME280;20918;51.138;17.370;2023-03-04T20:09:26;99981.00;;;1.75;80.91
34696;BME280;20918;51.138;17.370;2023-03-04T20:19:43;99985.98;;;1.72;79.53
34696;BME280;20918;51.138;17.370;2023-03-04T20:22:44;99988.55;;;1.70;79.70
34696;BME280;20918;51.138;17.370;2023-03-04T20:25:48;99985.59;;;1.68;79.26
34696;BME280;20918;51.138;17.370;2023-03-04T20:37:51;99987.95;;;1.62;78.42
34696;BME280;20918;51.138;17.370;2023-03-04T20:41:45;99986.53;;;1.60;76.77
34696;BME280;20918;51.138;17.370;2023-03-04T20:48:25;99988.92;;;1.58;76.24
34696;BME280;20918;51.138;17.370;2023-03-04T20:51:47;99992.15;;;1.56;76.19
34696;BME280;20918;51.138;17.370;2023-03-04T20:55:38;99981.52;;;1.54;76.36
34696;BME280;20918;51.138;17.370;2023-03-04T21:02:42;99982.99;;;1.50;76.33
34696;BME280;20918;51.138;17.370;2023-03-04T21:05:46;99982.86;;;1.48;76.07
34696;BME280;20918;51.138;17.370;2023-03-04T21:09:24;99981.48;;;1.45;76.07
34696;BME280;20918;51.138;17.370;2023-03-04T21:39:49;99993.95;;;1.22;74.51
34696;BME280;20918;51.138;17.370;2023-03-04T21:43:23;99995.63;;;1.21;74.77